createdAt,value
2018-09-06T00:00:21.738Z,19.70
2018-09-06T00:02:50.032Z,18.23
2018-09-06T00:05:18.280Z,20.07
2018-09-06T00:07:46.543Z,17.07
2018-09-06T00:10:14.826Z,19.33
2018-09-06T00:12:43.196Z,18.87
2018-09-06T00:15:11.527Z,20.63
2018-09-06T00:17:46.505Z,16.27
2018-09-06T00:20:14.790Z,20.37
2018-09-06T00:22:43.096Z,18.77
2018-09-06T00:25:11.565Z,17.37
2018-09-06T00:27:39.855Z,21.13
2018-09-06T00:30:08.114Z,18.97
2018-09-06T00:32:36.422Z,17.43
2018-09-06T00:35:04.712Z,20.70
2018-09-06T00:37:33.009Z,18.10
2018-09-06T00:40:01.286Z,22.10
2018-09-06T00:42:29.558Z,20.07
2018-09-06T00:44:57.914Z,22.00
2018-09-06T00:47:26.201Z,18.73
2018-09-06T00:49:54.492Z,20.30
2018-09-06T00:52:23.059Z,16.83
2018-09-06T00:54:51.328Z,20.27
2018-09-06T00:57:19.645Z,18.23
2018-09-06T00:59:47.897Z,20.67
2018-09-06T01:02:16.171Z,18.80
2018-09-06T01:04:44.427Z,16.83
2018-09-06T01:07:12.712Z,19.73
2018-09-06T01:09:41.036Z,16.50
2018-09-06T01:12:09.379Z,18.07
2018-09-06T01:14:37.643Z,16.77
2018-09-06T01:17:05.913Z,16.67
2018-09-06T01:19:34.253Z,20.40
2018-09-06T01:22:02.528Z,19.13
2018-09-06T01:24:30.884Z,19.03
2018-09-06T01:26:59.153Z,21.30
2018-09-06T01:29:27.434Z,18.27
2018-09-06T01:31:55.702Z,18.33
2018-09-06T01:34:24.074Z,19.87
2018-09-06T01:36:52.328Z,18.10
2018-09-06T01:39:20.589Z,20.50
2018-09-06T01:41:48.841Z,19.50
2018-09-06T01:44:17.116Z,20.37
2018-09-06T01:46:45.434Z,21.73
2018-09-06T01:49:13.722Z,18.30
2018-09-06T01:51:42.026Z,21.73
2018-09-06T01:54:10.329Z,20.53
2018-09-06T01:56:38.590Z,19.90
2018-09-06T01:59:06.980Z,20.00
2018-09-06T02:01:35.317Z,18.33
2018-09-06T02:04:03.592Z,20.13
2018-09-06T02:06:31.873Z,19.90
2018-09-06T02:09:00.193Z,20.37
2018-09-06T02:11:28.512Z,23.07
2018-09-06T02:13:56.805Z,24.80
2018-09-06T02:16:25.060Z,23.37
2018-09-06T02:18:53.374Z,23.63
2018-09-06T02:21:21.678Z,22.33
2018-09-06T02:23:52.001Z,20.73
2018-09-06T02:26:20.332Z,23.10
2018-09-06T02:28:48.579Z,22.20
2018-09-06T02:31:16.871Z,19.23
2018-09-06T02:33:45.636Z,16.73
2018-09-06T02:36:13.940Z,19.23
2018-09-06T02:38:42.224Z,20.00
2018-09-06T02:41:10.474Z,22.03
2018-09-06T02:43:38.696Z,21.80
2018-09-06T02:46:06.965Z,20.90
2018-09-06T02:48:40.270Z,21.10
2018-09-06T02:51:14.013Z,21.33
2018-09-06T02:53:42.478Z,21.00
2018-09-06T02:56:11.244Z,21.80
2018-09-06T02:58:39.573Z,22.83
2018-09-06T03:01:08.105Z,18.40
2018-09-06T03:03:36.404Z,21.03
2018-09-06T03:06:04.724Z,18.83
2018-09-06T03:08:33.048Z,22.43
2018-09-06T03:11:07.024Z,18.80
2018-09-06T03:13:35.329Z,17.73
2018-09-06T03:16:03.651Z,20.07
2018-09-06T03:18:31.937Z,19.07
2018-09-06T03:21:00.253Z,19.23
2018-09-06T03:23:28.543Z,19.90
2018-09-06T03:25:56.856Z,18.73
2018-09-06T03:28:25.103Z,18.77
2018-09-06T03:30:54.149Z,21.33
2018-09-06T03:33:22.469Z,18.60
2018-09-06T03:35:50.815Z,19.90
2018-09-06T03:38:19.155Z,18.40
2018-09-06T03:40:47.434Z,21.17
2018-09-06T03:43:15.701Z,19.17
2018-09-06T03:45:43.942Z,18.27
2018-09-06T03:48:12.228Z,20.20
2018-09-06T03:50:41.129Z,18.90
2018-09-06T03:53:09.380Z,20.80
2018-09-06T03:55:37.678Z,21.43
2018-09-06T03:58:06.020Z,20.60
2018-09-06T04:00:34.316Z,23.13
2018-09-06T04:03:02.582Z,23.27
2018-09-06T04:05:31.507Z,22.23
2018-09-06T04:07:59.830Z,21.40
2018-09-06T04:10:28.076Z,20.20
2018-09-06T04:12:56.362Z,21.30
2018-09-06T04:15:24.612Z,20.50
2018-09-06T04:17:52.860Z,25.33
2018-09-06T04:20:21.188Z,22.83
2018-09-06T04:22:51.309Z,25.33
2018-09-06T04:25:19.638Z,23.77
2018-09-06T04:27:48.275Z,25.57
2018-09-06T04:30:16.568Z,27.33
2018-09-06T04:32:44.876Z,26.70
2018-09-06T04:35:13.214Z,21.77
2018-09-06T04:37:41.510Z,24.63
2018-09-06T04:40:09.769Z,21.90
2018-09-06T04:42:38.031Z,21.07
2018-09-06T04:45:06.327Z,18.93
2018-09-06T04:47:34.588Z,22.30
2018-09-06T04:50:02.904Z,24.63
2018-09-06T04:52:31.236Z,18.30
2018-09-06T04:54:59.532Z,20.73
2018-09-06T04:57:27.783Z,19.63
2018-09-06T04:59:56.016Z,19.33
2018-09-06T05:02:24.337Z,22.40
2018-09-06T05:04:52.600Z,20.63
2018-09-06T05:07:20.844Z,20.37
2018-09-06T05:09:49.100Z,21.10
2018-09-06T05:12:17.342Z,19.40
2018-09-06T05:14:45.604Z,19.03
2018-09-06T05:17:13.866Z,19.57
2018-09-06T05:19:42.072Z,21.60
2018-09-06T05:22:10.307Z,23.43
2018-09-06T05:24:38.534Z,23.90
2018-09-06T05:27:06.816Z,20.23
2018-09-06T05:29:35.104Z,21.33
2018-09-06T05:32:03.308Z,20.57
2018-09-06T05:34:31.510Z,20.30
2018-09-06T05:36:59.713Z,20.37
2018-09-06T05:39:28.007Z,24.37
2018-09-06T05:41:56.235Z,20.97
2018-09-06T05:44:24.446Z,21.23
2018-09-06T05:46:52.695Z,21.73
2018-09-06T05:49:20.912Z,24.37
2018-09-06T05:51:49.191Z,20.40
2018-09-06T05:54:17.440Z,22.97
2018-09-06T05:56:46.384Z,24.20
2018-09-06T05:59:14.591Z,23.10
2018-09-06T06:01:42.787Z,26.07
2018-09-06T06:04:11.031Z,31.20
2018-09-06T06:06:39.253Z,24.27
2018-09-06T06:09:08.303Z,24.63
2018-09-06T06:11:37.249Z,23.87
2018-09-06T06:14:05.457Z,25.63
2018-09-06T06:16:33.699Z,24.70
2018-09-06T06:19:01.902Z,23.87
2018-09-06T06:21:30.106Z,30.03
2018-09-06T06:23:58.290Z,27.63
2018-09-06T06:26:26.506Z,28.57
2018-09-06T06:28:54.850Z,30.27
2018-09-06T06:31:23.043Z,26.93
2018-09-06T06:33:51.325Z,27.47
2018-09-06T06:36:19.554Z,27.53
2018-09-06T06:38:47.823Z,27.33
2018-09-06T06:41:16.060Z,24.63
2018-09-06T06:43:44.331Z,37.67
2018-09-06T06:46:12.522Z,28.50
2018-09-06T06:48:40.995Z,26.37
2018-09-06T06:51:09.276Z,28.57
2018-09-06T06:53:37.551Z,27.23
2018-09-06T06:56:05.903Z,30.33
2018-09-06T06:58:34.118Z,28.50
2018-09-06T07:01:02.407Z,25.33
2018-09-06T07:03:30.639Z,32.57
2018-09-06T07:05:58.871Z,23.07
2018-09-06T07:08:27.698Z,27.20
2018-09-06T07:10:55.928Z,24.47
2018-09-06T07:13:24.182Z,27.63
2018-09-06T07:15:52.424Z,28.30
2018-09-06T07:18:21.396Z,29.60
2018-09-06T07:20:49.740Z,28.67
2018-09-06T07:23:18.002Z,28.67
2018-09-06T07:25:46.281Z,31.97
2018-09-06T07:28:14.544Z,26.33
2018-09-06T07:30:42.829Z,29.93
2018-09-06T07:33:11.068Z,24.63
2018-09-06T07:35:39.313Z,30.10
2018-09-06T07:38:07.585Z,28.10
2018-09-06T07:40:35.849Z,28.23
2018-09-06T07:43:04.324Z,25.73
2018-09-06T07:45:32.587Z,24.83
2018-09-06T07:48:00.847Z,25.93
2018-09-06T07:50:29.099Z,24.87
2018-09-06T07:52:57.344Z,24.07
2018-09-06T07:55:25.621Z,22.87
2018-09-06T07:57:53.908Z,20.77
2018-09-06T08:00:22.153Z,27.00
2018-09-06T08:02:50.434Z,24.73
2018-09-06T08:05:18.721Z,22.00
2018-09-06T08:07:46.986Z,25.27
2018-09-06T08:10:15.295Z,23.20
2018-09-06T08:12:43.531Z,21.33
2018-09-06T08:15:11.832Z,23.30
2018-09-06T08:17:40.133Z,23.10
2018-09-06T08:20:08.451Z,21.37
2018-09-06T08:22:36.698Z,26.73
2018-09-06T08:25:07.035Z,25.93
2018-09-06T08:27:35.294Z,22.30
2018-09-06T08:30:03.607Z,23.90
2018-09-06T08:32:31.944Z,21.57
2018-09-06T08:35:00.203Z,18.10
2018-09-06T08:37:28.463Z,16.67
2018-09-06T08:39:56.700Z,22.77
2018-09-06T08:42:25.152Z,17.60
2018-09-06T08:44:53.481Z,16.57
2018-09-06T08:47:21.736Z,18.37
2018-09-06T08:49:50.027Z,16.53
2018-09-06T08:52:18.350Z,17.93
2018-09-06T08:54:46.623Z,15.80
2018-09-06T08:57:14.991Z,16.87
2018-09-06T08:59:43.259Z,18.90
2018-09-06T09:02:13.252Z,17.00
2018-09-06T09:04:41.647Z,17.97
2018-09-06T09:07:09.908Z,18.37
2018-09-06T09:09:38.169Z,17.67
2018-09-06T09:12:06.459Z,15.63
2018-09-06T09:14:35.583Z,14.83
2018-09-06T09:17:04.812Z,12.93
2018-09-06T09:19:33.116Z,16.27
2018-09-06T09:22:01.386Z,15.67
2018-09-06T09:24:29.707Z,16.80
2018-09-06T09:26:57.977Z,14.47
2018-09-06T09:29:26.318Z,14.20
2018-09-06T09:31:54.738Z,12.87
2018-09-06T09:34:23.081Z,15.67
2018-09-06T09:36:51.369Z,14.17
2018-09-06T09:39:19.598Z,15.23
2018-09-06T09:41:47.925Z,15.33
2018-09-06T09:44:16.250Z,10.87
2018-09-06T09:49:11.929Z,14.07
2018-09-06T09:51:40.214Z,14.67
2018-09-06T09:54:08.491Z,14.37
2018-09-06T09:56:36.778Z,12.00
2018-09-06T09:59:05.051Z,22.97
2018-09-06T10:01:38.928Z,13.47
2018-09-06T10:04:12.759Z,11.33
2018-09-06T10:06:46.564Z,11.00
2018-09-06T10:09:18.083Z,11.37
2018-09-06T10:11:46.576Z,10.43
2018-09-06T10:14:15.346Z,13.33
2018-09-06T10:16:43.709Z,12.60
2018-09-06T10:19:12.012Z,11.67
2018-09-06T10:21:40.264Z,13.03
2018-09-06T10:24:08.559Z,12.83
2018-09-06T10:26:37.083Z,10.87
2018-09-06T10:29:05.353Z,10.57
2018-09-06T10:31:34.282Z,13.53
2018-09-06T10:34:02.536Z,10.77
2018-09-06T10:36:30.842Z,12.10
2018-09-06T10:38:59.124Z,11.37
2018-09-06T10:41:27.388Z,10.73
2018-09-06T10:43:56.148Z,11.10
2018-09-06T10:46:24.379Z,9.53
2018-09-06T10:48:52.623Z,12.67
2018-09-06T10:51:20.811Z,11.00
2018-09-06T10:53:49.043Z,10.63
2018-09-06T10:56:17.326Z,8.70
2018-09-06T10:58:45.596Z,11.40
2018-09-06T11:01:19.344Z,8.77
2018-09-06T11:03:47.550Z,9.67
2018-09-06T11:06:15.959Z,9.60
2018-09-06T11:08:44.170Z,10.17
2018-09-06T11:11:12.387Z,8.83
2018-09-06T11:13:40.680Z,8.67
2018-09-06T11:16:08.934Z,9.10
2018-09-06T11:18:37.202Z,8.50
2018-09-06T11:21:05.546Z,9.43
2018-09-06T11:23:33.813Z,8.87
2018-09-06T11:26:02.071Z,11.40
2018-09-06T11:28:30.351Z,10.70
2018-09-06T11:30:58.559Z,9.70
2018-09-06T11:33:26.912Z,8.80
2018-09-06T11:35:55.323Z,8.20
2018-09-06T11:38:23.677Z,8.93
2018-09-06T11:40:52.015Z,9.63
2018-09-06T11:43:20.379Z,9.90
2018-09-06T11:45:48.856Z,8.70
2018-09-06T11:48:17.863Z,9.48
2018-09-06T11:50:46.184Z,8.43
2018-09-06T11:53:14.430Z,8.15
2018-09-06T11:55:43.874Z,9.55
2018-09-06T11:58:12.151Z,10.17
2018-09-06T12:00:42.213Z,7.93
2018-09-06T12:03:10.515Z,8.47
2018-09-06T12:05:38.868Z,8.97
2018-09-06T12:08:07.123Z,8.50
2018-09-06T12:10:35.405Z,9.87
2018-09-06T12:13:03.678Z,8.53
2018-09-06T12:15:32.007Z,9.13
2018-09-06T12:18:00.326Z,10.23
2018-09-06T12:20:28.607Z,10.00
2018-09-06T12:22:56.885Z,8.10
2018-09-06T12:25:25.220Z,8.93
2018-09-06T12:27:53.530Z,11.35
2018-09-06T12:30:22.480Z,7.58
2018-09-06T12:32:50.961Z,8.78
2018-09-06T12:35:19.466Z,7.75
2018-09-06T12:37:47.680Z,7.70
2018-09-06T12:40:15.911Z,7.30
2018-09-06T12:42:44.135Z,9.05
2018-09-06T12:45:12.346Z,7.80
2018-09-06T12:47:40.845Z,8.43
2018-09-06T12:50:09.068Z,10.15
2018-09-06T12:52:37.927Z,9.25
2018-09-06T12:55:06.203Z,9.35
2018-09-06T12:57:34.841Z,9.20
2018-09-06T13:00:03.363Z,11.07
2018-09-06T13:02:31.610Z,9.73
2018-09-06T13:04:59.845Z,10.57
2018-09-06T13:07:28.069Z,9.07
2018-09-06T13:09:56.395Z,9.17
2018-09-06T13:12:24.681Z,13.07
2018-09-06T13:14:52.916Z,9.07
2018-09-06T13:17:21.259Z,10.53
2018-09-06T13:19:49.844Z,11.50
2018-09-06T13:22:18.343Z,12.20
2018-09-06T13:24:46.726Z,13.10
2018-09-06T13:27:16.216Z,14.37
2018-09-06T13:29:44.535Z,12.40
2018-09-06T13:32:12.792Z,14.73
2018-09-06T13:34:41.033Z,11.93
2018-09-06T13:37:09.544Z,11.40
2018-09-06T13:39:37.805Z,13.90
2018-09-06T13:42:06.124Z,13.90
2018-09-06T13:44:34.341Z,10.93
2018-09-06T13:47:02.992Z,11.57
2018-09-06T13:49:31.237Z,12.10
2018-09-06T13:51:59.565Z,10.90
2018-09-06T13:54:28.242Z,10.50
2018-09-06T13:56:56.482Z,12.43
2018-09-06T13:59:24.727Z,12.90
2018-09-06T14:01:53.107Z,10.97
2018-09-06T14:04:21.352Z,15.43
2018-09-06T14:06:49.621Z,12.33
2018-09-06T14:09:18.721Z,13.30
2018-09-06T14:11:46.969Z,10.47
2018-09-06T14:14:15.248Z,11.07
2018-09-06T14:16:43.800Z,10.33
2018-09-06T14:19:12.052Z,9.27
2018-09-06T14:21:40.346Z,11.40
2018-09-06T14:24:08.625Z,10.10
2018-09-06T14:26:37.159Z,10.90
2018-09-06T14:29:05.465Z,10.37
2018-09-06T14:31:33.764Z,10.07
2018-09-06T14:34:02.521Z,12.83
2018-09-06T14:36:30.860Z,11.70
2018-09-06T14:38:59.513Z,9.17
2018-09-06T14:41:27.821Z,11.20
2018-09-06T14:43:56.191Z,9.80
2018-09-06T14:46:24.570Z,13.43
2018-09-06T14:48:52.884Z,11.87
2018-09-06T14:51:21.119Z,11.13
2018-09-06T14:53:49.619Z,9.30
2018-09-06T14:56:17.880Z,9.43
2018-09-06T14:58:46.563Z,11.87
2018-09-06T15:01:14.874Z,10.30
2018-09-06T15:03:43.108Z,9.90
2018-09-06T15:06:11.352Z,10.90
2018-09-06T15:08:39.604Z,10.17
2018-09-06T15:11:08.198Z,11.07
2018-09-06T15:13:36.491Z,9.73
2018-09-06T15:16:04.900Z,9.50
2018-09-06T15:18:33.277Z,9.90
2018-09-06T15:21:01.651Z,10.00
2018-09-06T15:23:29.897Z,9.17
2018-09-06T15:25:58.987Z,11.90
2018-09-06T15:28:27.186Z,11.87
2018-09-06T15:30:55.481Z,15.83
2018-09-06T15:33:23.684Z,12.40
2018-09-06T15:35:51.929Z,10.83
2018-09-06T15:38:20.171Z,10.20
2018-09-06T15:40:48.549Z,10.57
2018-09-06T15:43:16.775Z,9.73
2018-09-06T15:45:45.003Z,11.83
2018-09-06T15:48:13.392Z,9.57
2018-09-06T15:50:41.589Z,10.57
2018-09-06T15:53:10.260Z,9.20
2018-09-06T15:55:38.628Z,9.53
2018-09-06T15:58:06.805Z,8.73
2018-09-06T16:00:35.796Z,9.37
2018-09-06T16:03:04.003Z,9.80
2018-09-06T16:05:32.196Z,11.20
2018-09-06T16:08:00.410Z,9.53
2018-09-06T16:10:28.634Z,10.87
2018-09-06T16:12:56.859Z,9.90
2018-09-06T16:15:25.050Z,13.93
2018-09-06T16:17:53.280Z,10.93
2018-09-06T16:20:21.511Z,10.73
2018-09-06T16:22:49.795Z,8.87
2018-09-06T16:25:17.985Z,10.50
2018-09-06T16:27:46.287Z,10.93
2018-09-06T16:30:14.570Z,12.40
2018-09-06T16:32:42.794Z,11.60
2018-09-06T16:35:11.128Z,14.17
2018-09-06T16:37:39.335Z,12.37
2018-09-06T16:40:07.540Z,12.57
2018-09-06T16:42:35.899Z,15.97
2018-09-06T16:45:04.138Z,13.03
2018-09-06T16:47:32.350Z,12.07
2018-09-06T16:50:00.615Z,17.30
2018-09-06T16:52:29.013Z,14.60
2018-09-06T16:54:57.276Z,11.17
2018-09-06T16:57:25.516Z,14.83
2018-09-06T16:59:53.737Z,13.53
2018-09-06T17:02:21.943Z,13.47
2018-09-06T17:04:50.183Z,17.43
2018-09-06T17:07:18.423Z,13.57
2018-09-06T17:09:46.698Z,15.57
2018-09-06T17:12:14.907Z,12.43
2018-09-06T17:14:43.125Z,13.83
2018-09-06T17:17:11.453Z,12.73
2018-09-06T17:19:39.709Z,14.10
2018-09-06T17:22:07.957Z,14.13
2018-09-06T17:24:36.171Z,16.70
2018-09-06T17:27:04.472Z,15.37
2018-09-06T17:29:32.686Z,15.83
2018-09-06T17:32:00.913Z,12.20
2018-09-06T17:34:29.326Z,13.13
2018-09-06T17:36:57.523Z,18.13
2018-09-06T17:39:25.894Z,16.00
2018-09-06T17:41:54.523Z,13.30
2018-09-06T17:44:22.879Z,18.43
2018-09-06T17:46:51.976Z,15.07
2018-09-06T17:49:20.199Z,19.50
2018-09-06T17:51:48.429Z,18.90
2018-09-06T17:54:16.876Z,21.90
2018-09-06T17:56:45.136Z,22.47
2018-09-06T17:59:13.457Z,24.77
2018-09-06T18:01:42.943Z,22.77
2018-09-06T18:04:11.180Z,24.80
2018-09-06T18:06:39.445Z,20.23
2018-09-06T18:09:08.299Z,21.13
2018-09-06T18:11:36.807Z,19.07
2018-09-06T18:14:05.045Z,22.17
2018-09-06T18:16:33.331Z,18.27
2018-09-06T18:19:01.561Z,20.60
2018-09-06T18:21:29.796Z,18.90
2018-09-06T18:23:58.459Z,16.47
2018-09-06T18:26:27.306Z,18.20
2018-09-06T18:28:55.556Z,19.87
2018-09-06T18:31:23.783Z,23.47
2018-09-06T18:33:52.181Z,22.07
2018-09-06T18:36:20.484Z,22.13
2018-09-06T18:38:49.240Z,24.27
2018-09-06T18:41:17.511Z,19.70
2018-09-06T18:43:45.831Z,19.43
2018-09-06T18:46:14.071Z,21.43
2018-09-06T18:48:42.865Z,17.87
2018-09-06T18:51:11.412Z,15.37
2018-09-06T18:53:40.027Z,16.20
2018-09-06T18:56:08.256Z,17.50
2018-09-06T18:58:36.667Z,15.33
2018-09-06T19:01:04.935Z,15.90
2018-09-06T19:03:33.163Z,16.43
2018-09-06T19:06:01.367Z,17.57
2018-09-06T19:08:29.597Z,14.60
2018-09-06T19:10:57.872Z,17.10
2018-09-06T19:13:26.120Z,19.10
2018-09-06T19:15:54.319Z,15.13
2018-09-06T19:18:22.564Z,17.27
2018-09-06T19:20:50.780Z,16.13
2018-09-06T19:23:18.996Z,19.03
2018-09-06T19:25:47.244Z,17.83
2018-09-06T19:28:15.492Z,16.67
2018-09-06T19:30:43.724Z,17.50
2018-09-06T19:33:12.781Z,20.37
2018-09-06T19:35:41.038Z,17.33
2018-09-06T19:38:09.289Z,16.20
2018-09-06T19:40:37.508Z,18.57
2018-09-06T19:43:05.988Z,15.87
2018-09-06T19:45:34.224Z,18.17
2018-09-06T19:48:02.507Z,21.90
2018-09-06T19:50:30.756Z,20.00
2018-09-06T19:52:58.975Z,16.57
2018-09-06T19:55:27.183Z,15.63
2018-09-06T19:57:55.471Z,19.83
2018-09-06T20:00:23.687Z,17.13
2018-09-06T20:02:52.039Z,20.90
2018-09-06T20:05:20.295Z,17.80
2018-09-06T20:07:48.533Z,19.07
2018-09-06T20:10:16.760Z,18.93
2018-09-06T20:12:44.982Z,20.50
2018-09-06T20:15:13.242Z,20.53
2018-09-06T20:17:41.448Z,19.47
2018-09-06T20:20:09.663Z,22.40
2018-09-06T20:22:37.888Z,20.37
2018-09-06T20:25:06.116Z,20.20
2018-09-06T20:27:34.413Z,18.90
2018-09-06T20:30:02.693Z,20.53
2018-09-06T20:32:30.899Z,21.53
2018-09-06T20:34:59.115Z,22.10
2018-09-06T20:37:27.315Z,21.80
2018-09-06T20:39:55.634Z,19.47
2018-09-06T20:42:23.881Z,25.77
2018-09-06T20:44:52.196Z,20.10
2018-09-06T20:47:20.483Z,20.10
2018-09-06T20:49:48.704Z,20.60
2018-09-06T20:52:17.021Z,21.83
2018-09-06T20:54:45.255Z,24.53
2018-09-06T20:57:13.464Z,21.73
2018-09-06T20:59:41.728Z,23.67
2018-09-06T21:02:15.667Z,22.70
2018-09-06T21:04:43.954Z,24.73
2018-09-06T21:07:12.282Z,23.77
2018-09-06T21:09:40.479Z,22.17
2018-09-06T21:12:08.715Z,19.90
2018-09-06T21:14:37.057Z,21.70
2018-09-06T21:17:05.278Z,23.83
2018-09-06T21:19:33.471Z,23.47
2018-09-06T21:22:01.676Z,24.43
2018-09-06T21:24:29.867Z,24.30
2018-09-06T21:26:58.130Z,24.33
2018-09-06T21:29:26.377Z,22.80
2018-09-06T21:31:54.566Z,26.60
2018-09-06T21:34:22.767Z,22.03
2018-09-06T21:36:50.978Z,23.13
2018-09-06T21:39:19.270Z,27.03
2018-09-06T21:41:47.504Z,22.77
2018-09-06T21:44:16.235Z,21.93
2018-09-06T21:46:45.126Z,23.63
2018-09-06T21:49:14.088Z,27.50
2018-09-06T21:51:42.303Z,23.70
2018-09-06T21:54:10.616Z,26.27
2018-09-06T21:56:38.838Z,22.30
2018-09-06T21:59:07.052Z,24.67
2018-09-06T22:01:35.564Z,22.90
2018-09-06T22:04:07.882Z,24.13
2018-09-06T22:06:37.113Z,26.70
2018-09-06T22:09:07.609Z,25.30
2018-09-06T22:11:35.909Z,26.70
2018-09-06T22:14:04.142Z,24.87
2018-09-06T22:16:32.897Z,25.60
2018-09-06T22:19:01.109Z,27.33
2018-09-06T22:21:29.451Z,24.17
2018-09-06T22:23:57.784Z,31.03
2018-09-06T22:26:26.025Z,31.40
2018-09-06T22:28:54.230Z,26.20
2018-09-06T22:31:22.452Z,26.13
2018-09-06T22:33:50.678Z,27.83
2018-09-06T22:36:18.955Z,25.83
2018-09-06T22:38:47.181Z,24.27
2018-09-06T22:41:15.375Z,25.03
2018-09-06T22:43:43.571Z,26.50
2018-09-06T22:46:15.819Z,31.87
2018-09-06T23:01:57.894Z,27.97
2018-09-06T23:04:26.295Z,29.17
2018-09-06T23:06:54.778Z,28.23
2018-09-06T23:09:23.243Z,26.50
2018-09-06T23:11:51.604Z,32.77
2018-09-06T23:14:19.957Z,29.20
2018-09-06T23:16:48.306Z,31.40
2018-09-06T23:19:17.549Z,28.30
2018-09-06T23:21:45.868Z,31.43
2018-09-06T23:24:14.149Z,27.40
2018-09-06T23:26:42.437Z,27.07
2018-09-06T23:29:10.724Z,27.93
2018-09-06T23:31:39.071Z,29.03
2018-09-06T23:34:07.456Z,27.87
2018-09-06T23:36:35.756Z,31.60
2018-09-06T23:39:05.123Z,30.10
2018-09-06T23:41:33.380Z,26.20
2018-09-06T23:44:02.022Z,31.00
2018-09-06T23:46:30.441Z,27.87
2018-09-06T23:48:58.706Z,26.83
2018-09-06T23:51:26.964Z,29.47
2018-09-06T23:53:55.215Z,27.63
2018-09-06T23:56:23.509Z,28.67
2018-09-06T23:58:51.872Z,30.07
